Time;durP1;ratioP1;P1;durP2;ratioP2;P2;SDS_P1;SDS_P2;PMS_P1;PMS_P2;Temp;Humidity;BMP_temperature;BMP_pressure;BME280_temperature;BME280_humidity;BME280_pressure;Samples;Min_cycle;Max_cycle;Signal;HPM_P1;HPM_P2
2023/06/25 00:00:04;;;;;;;3.25;2.42;;;23.10;99.90;;;;;;4190565;28;20078;-59
2023/06/25 00:02:05;;;;;;;3.08;2.63;;;23.10;99.90;;;;;;4200899;28;20395;-60
2023/06/25 00:04:05;;;;;;;2.67;2.40;;;23.10;99.90;;;;;;4202831;28;20036;-60
2023/06/25 00:06:06;;;;;;;3.03;2.30;;;23.00;99.90;;;;;;4197696;28;20066;-59
2023/06/25 00:08:07;;;;;;;2.85;2.55;;;23.00;99.90;;;;;;4204736;28;20390;-59
2023/06/25 00:10:08;;;;;;;2.70;2.28;;;23.00;99.90;;;;;;4211085;28;20032;-63
2023/06/25 00:12:09;;;;;;;2.45;2.20;;;23.00;99.90;;;;;;4210010;28;20032;-59
2023/06/25 00:14:09;;;;;;;4.13;2.70;;;23.00;99.90;;;;;;4212227;28;20036;-59
2023/06/25 00:16:10;;;;;;;3.10;2.30;;;22.90;99.90;;;;;;4196030;28;20036;-59
2023/06/25 00:18:10;;;;;;;3.92;2.47;;;22.90;99.90;;;;;;4177218;28;20037;-59
2023/06/25 00:20:11;;;;;;;3.42;2.50;;;22.90;99.90;;;;;;4200650;28;20036;-61
2023/06/25 00:22:13;;;;;;;4.95;2.67;;;22.90;99.90;;;;;;4200581;28;20410;-59
2023/06/25 00:24:14;;;;;;;3.38;2.72;;;22.90;99.90;;;;;;4203842;28;20098;-59
2023/06/25 00:26:15;;;;;;;2.97;2.40;;;22.80;99.90;;;;;;4177758;28;20086;-59
2023/06/25 00:28:15;;;;;;;3.45;2.47;;;22.80;99.90;;;;;;4205028;28;20036;-59
2023/06/25 00:30:17;;;;;;;3.28;2.35;;;22.80;99.90;;;;;;4202030;28;20038;-59
2023/06/25 00:32:17;;;;;;;3.45;2.25;;;22.70;99.90;;;;;;4204204;28;20058;-59
2023/06/25 00:34:19;;;;;;;4.20;2.42;;;22.70;99.90;;;;;;4205762;28;20032;-59
2023/06/25 00:36:19;;;;;;;3.53;2.60;;;22.70;99.90;;;;;;4178327;28;20033;-59
2023/06/25 00:38:20;;;;;;;3.45;2.50;;;22.70;99.90;;;;;;4203781;28;20147;-59
2023/06/25 00:40:21;;;;;;;3.28;2.60;;;22.60;99.90;;;;;;4203213;28;20383;-59
2023/06/25 00:42:21;;;;;;;4.30;2.50;;;22.60;99.90;;;;;;4195961;28;20108;-59
2023/06/25 00:44:22;;;;;;;3.20;2.40;;;22.60;99.90;;;;;;4203462;28;20032;-60
2023/06/25 00:46:25;;;;;;;3.40;2.97;;;22.60;99.90;;;;;;4202517;28;20490;-61
2023/06/25 00:48:27;;;;;;;3.25;2.40;;;22.60;99.90;;;;;;4161863;28;20116;-59
2023/06/25 00:50:28;;;;;;;4.00;2.58;;;22.60;99.90;;;;;;4205307;28;20047;-59
2023/06/25 00:52:29;;;;;;;3.33;2.55;;;22.50;99.90;;;;;;4203499;28;20470;-59
2023/06/25 00:54:30;;;;;;;3.80;2.85;;;22.50;99.90;;;;;;4200745;28;20383;-60
2023/06/25 00:56:32;;;;;;;3.15;2.55;;;22.50;99.90;;;;;;4207894;28;20032;-60
2023/06/25 00:58:37;;;;;;;3.47;2.60;;;22.50;99.90;;;;;;4200068;28;20036;-59
2023/06/25 01:00:39;;;;;;;4.00;3.13;;;22.50;99.90;;;;;;4187344;28;20041;-59
2023/06/25 01:03:03;;;;;;;3.70;2.50;;;22.50;99.90;;;;;;4181585;28;20033;-59
2023/06/25 01:05:11;;;;;;;4.47;2.70;;;22.40;99.90;;;;;;4194601;28;20111;-60
2023/06/25 01:07:17;;;;;;;3.88;2.85;;;22.40;99.90;;;;;;4193676;28;20047;-59
2023/06/25 01:09:17;;;;;;;4.03;2.92;;;22.40;99.90;;;;;;4196484;28;20981;-59
2023/06/25 01:11:18;;;;;;;3.92;2.63;;;22.40;99.90;;;;;;4206326;28;20059;-59
2023/06/25 01:13:19;;;;;;;4.15;2.70;;;22.40;99.90;;;;;;4185221;28;20033;-59
2023/06/25 01:15:19;;;;;;;4.20;2.92;;;22.30;99.90;;;;;;4177877;28;20043;-59
2023/06/25 01:17:20;;;;;;;3.88;2.90;;;22.30;99.90;;;;;;4203333;28;20048;-59
2023/06/25 01:19:25;;;;;;;5.22;3.60;;;22.30;99.90;;;;;;4189233;28;20037;-59
2023/06/25 01:21:27;;;;;;;7.72;3.42;;;22.30;99.90;;;;;;4187244;28;20067;-59
2023/06/25 01:23:29;;;;;;;3.80;3.03;;;22.30;99.90;;;;;;4206798;28;20458;-59
2023/06/25 01:25:30;;;;;;;3.92;3.03;;;22.20;99.90;;;;;;4201253;28;20177;-61
2023/06/25 01:27:33;;;;;;;4.57;3.22;;;22.20;99.90;;;;;;4207167;28;20036;-60
2023/06/25 01:29:34;;;;;;;4.20;3.10;;;22.20;99.90;;;;;;4198373;28;20037;-59
2023/06/25 01:31:35;;;;;;;3.97;3.05;;;22.20;99.90;;;;;;4185652;28;20024;-59
2023/06/25 01:33:36;;;;;;;3.72;3.13;;;22.20;99.90;;;;;;4193459;28;20028;-59
2023/06/25 01:35:37;;;;;;;4.55;3.05;;;22.20;99.90;;;;;;4193377;28;20075;-59
2023/06/25 01:37:37;;;;;;;4.05;2.88;;;22.20;99.90;;;;;;4193095;28;20510;-59
2023/06/25 01:39:38;;;;;;;3.97;3.15;;;22.20;99.90;;;;;;4205544;28;20390;-59
2023/06/25 01:41:39;;;;;;;3.25;2.85;;;22.10;99.90;;;;;;4192376;28;20031;-59
2023/06/25 01:43:39;;;;;;;3.65;3.10;;;22.10;99.90;;;;;;4178105;28;20112;-59
2023/06/25 01:45:40;;;;;;;4.80;3.28;;;22.10;99.90;;;;;;4202138;28;20028;-59
2023/06/25 01:47:41;;;;;;;5.13;3.10;;;22.10;99.90;;;;;;4205004;28;20032;-60
2023/06/25 01:49:42;;;;;;;4.97;3.25;;;22.00;99.90;;;;;;4201894;28;20026;-59
2023/06/25 01:51:42;;;;;;;4.50;3.22;;;22.00;99.90;;;;;;4208928;28;20028;-59
2023/06/25 01:53:43;;;;;;;3.15;2.85;;;22.00;99.90;;;;;;4201579;28;20082;-59
2023/06/25 01:55:43;;;;;;;4.20;3.03;;;21.90;99.90;;;;;;4193045;28;20037;-59
2023/06/25 01:57:44;;;;;;;3.60;2.83;;;21.90;99.90;;;;;;4193288;28;20028;-59
2023/06/25 01:59:45;;;;;;;3.78;3.03;;;21.90;99.90;;;;;;4206896;28;20120;-59
2023/06/25 02:01:45;;;;;;;3.00;2.70;;;21.90;99.90;;;;;;4195084;28;20032;-59
2023/06/25 02:03:46;;;;;;;3.55;2.65;;;21.90;99.90;;;;;;4185988;28;20056;-59
2023/06/25 02:05:46;;;;;;;6.70;3.10;;;21.80;99.90;;;;;;4206393;28;20038;-59
2023/06/25 02:07:47;;;;;;;4.88;3.13;;;21.80;99.90;;;;;;4209807;28;20076;-59
2023/06/25 02:09:47;;;;;;;4.68;2.78;;;21.80;99.90;;;;;;4206596;28;20482;-59
2023/06/25 02:11:48;;;;;;;4.38;2.67;;;21.70;99.90;;;;;;4205029;28;20107;-59
2023/06/25 02:13:50;;;;;;;3.75;2.80;;;21.70;99.90;;;;;;4194516;28;21038;-60
2023/06/25 02:15:50;;;;;;;4.03;3.17;;;21.70;99.90;;;;;;4207523;28;20044;-59
2023/06/25 02:17:51;;;;;;;4.03;3.05;;;21.70;99.90;;;;;;4209930;28;20065;-59
2023/06/25 02:19:51;;;;;;;4.07;2.90;;;21.70;99.90;;;;;;4198255;28;20036;-59
2023/06/25 02:21:52;;;;;;;3.85;2.45;;;21.70;99.90;;;;;;4193072;28;20025;-59
2023/06/25 02:23:52;;;;;;;4.60;2.97;;;21.70;99.90;;;;;;4195980;28;20032;-59
2023/06/25 02:25:53;;;;;;;5.20;2.70;;;21.70;99.90;;;;;;4206821;28;20055;-60
2023/06/25 02:27:53;;;;;;;4.85;3.00;;;21.60;99.90;;;;;;4199189;28;20028;-59
2023/06/25 02:29:54;;;;;;;4.65;3.20;;;21.60;99.90;;;;;;4201443;28;20056;-60
2023/06/25 02:31:55;;;;;;;5.63;3.78;;;21.60;99.90;;;;;;4207488;28;20036;-60
2023/06/25 02:33:55;;;;;;;4.63;3.33;;;21.60;99.90;;;;;;4195230;28;20115;-59
2023/06/25 02:35:56;;;;;;;3.97;2.80;;;21.60;99.90;;;;;;4195721;28;20058;-59
2023/06/25 02:37:56;;;;;;;4.75;2.85;;;21.60;99.90;;;;;;4209039;28;20533;-59
2023/06/25 02:39:57;;;;;;;5.40;3.17;;;21.50;99.90;;;;;;4203648;28;20040;-59
2023/06/25 02:41:57;;;;;;;3.80;3.05;;;21.50;99.90;;;;;;4207738;28;20070;-59
2023/06/25 02:43:58;;;;;;;3.63;2.80;;;21.50;99.90;;;;;;4206912;28;20028;-59
2023/06/25 02:45:58;;;;;;;5.50;2.83;;;21.50;99.90;;;;;;4206461;28;20024;-60
2023/06/25 02:47:59;;;;;;;3.55;2.92;;;21.30;99.90;;;;;;4203616;28;20379;-59
2023/06/25 02:50:00;;;;;;;5.57;3.15;;;21.30;99.90;;;;;;4209221;28;20067;-61
2023/06/25 02:52:00;;;;;;;3.28;2.72;;;21.30;99.90;;;;;;4209859;28;20506;-60
2023/06/25 02:54:01;;;;;;;4.68;3.10;;;21.30;99.90;;;;;;4213544;28;20502;-59
2023/06/25 02:56:01;;;;;;;4.20;3.25;;;21.30;99.90;;;;;;4211858;28;20483;-59
2023/06/25 02:58:02;;;;;;;4.70;3.28;;;21.30;99.90;;;;;;4198569;28;20040;-59
2023/06/25 03:00:04;;;;;;;6.90;3.08;;;21.20;99.90;;;;;;4199645;28;20036;-60
2023/06/25 03:02:05;;;;;;;4.60;3.38;;;21.20;99.90;;;;;;4210794;28;20039;-59
2023/06/25 03:04:06;;;;;;;3.65;3.17;;;21.20;99.90;;;;;;4211745;28;20095;-59
2023/06/25 03:06:07;;;;;;;4.53;3.00;;;21.20;99.90;;;;;;4201018;28;20036;-59
2023/06/25 03:08:07;;;;;;;5.00;3.50;;;21.10;99.90;;;;;;4207322;28;20504;-59
2023/06/25 03:10:08;;;;;;;4.53;3.17;;;21.10;99.90;;;;;;4206193;28;20039;-61
2023/06/25 03:12:09;;;;;;;6.13;3.65;;;21.10;99.90;;;;;;4195782;28;20044;-59
2023/06/25 03:14:10;;;;;;;5.18;3.50;;;21.00;99.90;;;;;;4204029;28;20089;-59
2023/06/25 03:16:10;;;;;;;5.07;3.78;;;21.00;99.90;;;;;;4208991;28;20394;-59
2023/06/25 03:18:11;;;;;;;6.13;3.90;;;21.00;99.90;;;;;;4205775;28;20040;-59
2023/06/25 03:20:13;;;;;;;4.97;3.60;;;21.00;99.90;;;;;;4208578;28;20128;-59
2023/06/25 03:22:13;;;;;;;5.43;3.58;;;21.00;99.90;;;;;;4204550;28;20028;-59
2023/06/25 03:24:14;;;;;;;6.32;3.42;;;21.10;99.90;;;;;;4212830;28;20398;-59
2023/06/25 03:26:14;;;;;;;5.35;3.55;;;21.10;99.90;;;;;;4209941;28;20395;-59
2023/06/25 03:28:15;;;;;;;5.20;3.60;;;21.10;99.90;;;;;;4212573;28;20121;-59
2023/06/25 03:30:16;;;;;;;6.20;3.30;;;21.10;99.90;;;;;;4205876;28;20542;-59
2023/06/25 03:32:17;;;;;;;6.40;3.85;;;21.10;99.90;;;;;;4204416;28;20379;-59
2023/06/25 03:34:17;;;;;;;5.07;3.70;;;21.10;99.90;;;;;;4211241;28;20062;-59
2023/06/25 03:36:18;;;;;;;5.93;3.63;;;21.10;99.90;;;;;;4207657;28;20021;-59
2023/06/25 03:38:18;;;;;;;4.65;3.72;;;21.10;99.90;;;;;;4211140;28;20032;-59
2023/06/25 03:40:19;;;;;;;5.00;3.25;;;21.10;99.90;;;;;;4209109;28;20097;-59
2023/06/25 03:42:19;;;;;;;5.25;3.33;;;21.10;99.90;;;;;;4204198;28;20122;-59
2023/06/25 03:44:20;;;;;;;3.58;3.00;;;21.10;99.90;;;;;;4194878;28;21562;-59
2023/06/25 03:46:20;;;;;;;3.35;2.88;;;21.10;99.90;;;;;;4209429;28;20072;-59
2023/06/25 03:48:21;;;;;;;5.50;3.50;;;21.10;99.90;;;;;;4206442;28;20052;-59
2023/06/25 03:50:22;;;;;;;4.55;3.22;;;21.20;99.90;;;;;;4195081;28;20119;-59
2023/06/25 03:52:22;;;;;;;4.70;3.22;;;21.20;99.90;;;;;;4201824;28;20447;-59
2023/06/25 03:54:23;;;;;;;7.13;3.35;;;21.20;99.90;;;;;;4210909;28;20368;-59
2023/06/25 03:56:23;;;;;;;5.30;3.38;;;21.20;99.90;;;;;;4208333;28;20028;-59
2023/06/25 03:58:24;;;;;;;3.83;2.97;;;21.20;99.90;;;;;;4197262;28;20029;-59
2023/06/25 04:00:24;;;;;;;4.60;3.15;;;21.10;99.90;;;;;;4196777;28;20588;-59
2023/06/25 04:02:25;;;;;;;8.40;3.90;;;21.20;99.90;;;;;;4207999;28;20538;-59
2023/06/25 04:04:25;;;;;;;4.70;2.92;;;21.20;99.90;;;;;;4196410;28;20029;-63
2023/06/25 04:06:26;;;;;;;6.30;2.95;;;21.20;99.90;;;;;;4194475;28;20432;-60
2023/06/25 04:08:26;;;;;;;4.75;3.40;;;21.20;99.90;;;;;;4195374;28;20067;-59
2023/06/25 04:10:27;;;;;;;5.90;3.30;;;21.20;99.90;;;;;;4194762;28;20036;-59
2023/06/25 04:12:28;;;;;;;19.40;3.63;;;21.20;99.90;;;;;;4196868;28;20498;-59
2023/06/25 04:14:29;;;;;;;5.88;3.45;;;21.20;99.90;;;;;;4195619;28;20052;-59
2023/06/25 04:16:29;;;;;;;5.60;3.08;;;21.20;99.90;;;;;;4206384;28;20032;-59
2023/06/25 04:18:30;;;;;;;5.18;3.33;;;21.30;99.90;;;;;;4200718;28;20028;-59
2023/06/25 04:20:30;;;;;;;5.05;3.20;;;21.20;99.90;;;;;;4211181;28;20347;-59
2023/06/25 04:22:31;;;;;;;5.28;3.35;;;21.30;99.90;;;;;;4206816;28;20030;-59
2023/06/25 04:24:31;;;;;;;4.57;3.50;;;21.30;99.90;;;;;;4212254;28;20050;-59
2023/06/25 04:26:33;;;;;;;3.42;3.00;;;21.30;99.90;;;;;;4187794;28;20503;-60
2023/06/25 04:28:33;;;;;;;3.97;2.95;;;21.30;99.90;;;;;;4208417;28;20016;-59
2023/06/25 04:30:34;;;;;;;8.07;3.30;;;21.30;99.90;;;;;;4208912;28;20349;-59
2023/06/25 04:32:34;;;;;;;6.00;3.75;;;21.30;99.90;;;;;;4206810;28;20060;-60
2023/06/25 04:34:35;;;;;;;6.00;3.30;;;21.30;99.90;;;;;;4205435;28;20044;-59
2023/06/25 04:36:35;;;;;;;4.63;3.40;;;21.30;99.90;;;;;;4204399;28;20059;-60
2023/06/25 04:38:36;;;;;;;4.90;3.70;;;21.30;99.90;;;;;;4194742;28;20123;-59
2023/06/25 04:40:37;;;;;;;6.25;3.50;;;21.30;99.90;;;;;;4206331;28;20173;-59
2023/06/25 04:42:37;;;;;;;5.68;3.80;;;21.30;99.90;;;;;;4200664;28;20040;-59
2023/06/25 04:44:38;;;;;;;7.15;4.38;;;21.30;99.90;;;;;;4208558;28;20032;-59
2023/06/25 04:46:38;;;;;;;7.50;3.97;;;21.20;99.90;;;;;;4199830;28;20032;-59
2023/06/25 04:48:42;;;;;;;5.95;4.15;;;21.20;99.90;;;;;;4206794;28;20031;-59
2023/06/25 04:50:43;;;;;;;8.75;3.85;;;21.20;99.90;;;;;;4207678;28;20700;-59
2023/06/25 04:52:44;;;;;;;6.03;4.07;;;21.20;99.90;;;;;;4198091;28;20039;-59
2023/06/25 04:54:47;;;;;;;7.03;3.97;;;21.20;99.90;;;;;;4211620;28;20090;-59
2023/06/25 04:56:48;;;;;;;8.65;4.05;;;21.20;99.90;;;;;;4209020;28;20034;-59
2023/06/25 04:58:48;;;;;;;6.25;3.92;;;21.30;99.90;;;;;;4209966;28;20107;-58
2023/06/25 05:00:49;;;;;;;10.43;4.43;;;21.30;99.90;;;;;;4204985;28;20036;-60
2023/06/25 05:02:49;;;;;;;5.85;4.60;;;21.30;99.90;;;;;;4206477;28;20524;-59
2023/06/25 05:04:50;;;;;;;7.32;4.95;;;21.20;99.90;;;;;;4203432;28;20391;-59
2023/06/25 05:06:51;;;;;;;12.55;6.15;;;21.30;99.90;;;;;;4207162;28;20028;-59
2023/06/25 05:08:51;;;;;;;7.03;5.13;;;21.20;99.90;;;;;;4209204;28;20025;-59
2023/06/25 05:10:53;;;;;;;7.22;4.75;;;21.30;99.90;;;;;;4194001;28;20410;-59
2023/06/25 05:12:53;;;;;;;8.90;5.32;;;21.30;99.90;;;;;;4203171;28;20063;-59
2023/06/25 05:14:54;;;;;;;6.07;4.32;;;21.30;99.90;;;;;;4211186;28;20186;-59
2023/06/25 05:16:54;;;;;;;11.20;5.97;;;21.30;99.90;;;;;;4198138;28;20036;-59
2023/06/25 05:18:55;;;;;;;7.95;5.70;;;21.30;99.90;;;;;;4206122;28;20056;-59
2023/06/25 05:20:56;;;;;;;10.70;5.55;;;21.40;99.90;;;;;;4207167;28;20085;-59
2023/06/25 05:22:56;;;;;;;7.90;5.15;;;21.40;99.90;;;;;;4198716;28;20041;-59
2023/06/25 05:24:57;;;;;;;6.95;5.05;;;21.40;99.90;;;;;;4203037;28;20047;-62
2023/06/25 05:26:57;;;;;;;8.32;5.63;;;21.50;99.90;;;;;;4207564;28;20035;-60
2023/06/25 05:28:59;;;;;;;10.30;6.53;;;21.50;99.90;;;;;;4208057;28;20032;-60
2023/06/25 05:30:59;;;;;;;7.00;5.32;;;21.40;99.90;;;;;;4205523;28;20054;-59
2023/06/25 05:33:00;;;;;;;7.35;5.15;;;21.40;99.90;;;;;;4210845;28;20036;-59
2023/06/25 05:35:00;;;;;;;12.23;6.47;;;21.50;99.90;;;;;;4202939;28;20185;-59
2023/06/25 05:37:01;;;;;;;12.07;6.32;;;21.50;99.90;;;;;;4208123;28;20037;-59
2023/06/25 05:39:02;;;;;;;8.30;5.97;;;21.60;99.90;;;;;;4206414;28;20066;-59
2023/06/25 05:41:03;;;;;;;9.30;5.13;;;21.60;99.90;;;;;;4191205;28;20373;-59
2023/06/25 05:43:04;;;;;;;6.45;5.20;;;21.60;99.90;;;;;;4203251;28;20075;-59
2023/06/25 05:45:05;;;;;;;7.00;5.18;;;21.70;99.90;;;;;;4199598;28;20078;-60
2023/06/25 05:47:06;;;;;;;8.88;5.78;;;21.70;99.90;;;;;;4207328;28;20494;-59
2023/06/25 05:49:07;;;;;;;7.95;5.80;;;21.90;99.90;;;;;;4209442;28;20036;-59
2023/06/25 05:51:07;;;;;;;9.40;5.72;;;22.10;99.90;;;;;;4195706;28;20063;-59
2023/06/25 05:53:08;;;;;;;9.55;5.50;;;22.50;99.90;;;;;;4206996;28;20556;-60
2023/06/25 05:55:08;;;;;;;8.85;5.00;;;22.90;99.90;;;;;;4210136;28;20040;-63
2023/06/25 05:57:09;;;;;;;8.45;5.05;;;23.20;99.90;;;;;;4205577;28;20439;-60
2023/06/25 05:59:10;;;;;;;7.70;5.35;;;23.60;99.90;;;;;;4203721;28;20119;-60
2023/06/25 06:01:10;;;;;;;7.00;5.18;;;24.00;99.90;;;;;;4205849;28;20047;-59
2023/06/25 06:03:11;;;;;;;6.18;4.55;;;24.40;99.90;;;;;;4208108;28;20039;-60
2023/06/25 06:05:11;;;;;;;10.63;4.90;;;24.70;99.90;;;;;;4190204;28;20112;-60
2023/06/25 06:07:12;;;;;;;9.60;5.18;;;25.10;99.90;;;;;;4191699;28;20041;-60
2023/06/25 06:09:13;;;;;;;7.75;4.85;;;25.50;99.90;;;;;;4194120;28;20041;-60
2023/06/25 06:11:13;;;;;;;6.35;4.65;;;25.80;99.90;;;;;;4203965;28;20101;-60
2023/06/25 06:13:14;;;;;;;8.48;4.82;;;26.10;99.90;;;;;;4198874;28;20040;-60
2023/06/25 06:15:16;;;;;;;6.30;5.00;;;26.50;99.90;;;;;;4204351;28;20040;-61
2023/06/25 06:17:16;;;;;;;6.00;4.53;;;26.80;99.90;;;;;;4193747;28;20044;-61
2023/06/25 06:19:17;;;;;;;7.90;5.40;;;27.00;98.80;;;;;;4206764;28;20040;-60
2023/06/25 06:21:17;;;;;;;6.53;4.80;;;27.20;97.90;;;;;;4195939;28;20103;-61
2023/06/25 06:23:18;;;;;;;5.95;4.57;;;27.50;97.90;;;;;;4203800;28;20024;-61
2023/06/25 06:25:19;;;;;;;6.63;4.35;;;27.70;97.00;;;;;;4208238;28;20498;-61
2023/06/25 06:27:19;;;;;;;5.80;4.30;;;28.00;97.20;;;;;;4187641;28;20040;-60
2023/06/25 06:29:20;;;;;;;4.70;3.78;;;28.20;96.60;;;;;;4210705;28;20039;-61
2023/06/25 06:31:22;;;;;;;6.88;4.57;;;28.50;96.20;;;;;;4195698;28;20391;-60
2023/06/25 06:33:22;;;;;;;7.93;4.63;;;28.50;96.10;;;;;;4208474;28;20059;-61
2023/06/25 06:35:23;;;;;;;6.35;4.60;;;28.40;94.40;;;;;;4196369;28;20036;-60
2023/06/25 06:37:23;;;;;;;5.75;4.03;;;28.20;94.00;;;;;;4194677;28;20257;-61
2023/06/25 06:39:24;;;;;;;6.40;4.40;;;28.30;94.40;;;;;;4203917;28;20038;-60
2023/06/25 06:41:24;;;;;;;8.02;4.88;;;28.30;93.40;;;;;;4202820;28;20400;-60
2023/06/25 06:43:25;;;;;;;7.28;4.78;;;28.30;93.90;;;;;;4210549;28;20054;-61
2023/06/25 06:45:26;;;;;;;7.40;4.35;;;28.40;94.20;;;;;;4207375;28;20051;-60
2023/06/25 06:47:26;;;;;;;7.50;4.18;;;28.30;93.40;;;;;;4207823;28;20035;-61
2023/06/25 06:49:27;;;;;;;6.80;4.43;;;28.30;92.80;;;;;;4202465;28;20032;-61
2023/06/25 06:51:28;;;;;;;5.93;4.13;;;28.30;93.40;;;;;;4201320;28;20150;-61
2023/06/25 06:53:28;;;;;;;8.65;4.85;;;28.30;92.90;;;;;;4202818;28;20032;-63
2023/06/25 06:55:29;;;;;;;8.30;5.28;;;28.30;92.50;;;;;;4201464;28;20036;-62
2023/06/25 06:57:29;;;;;;;6.05;4.47;;;28.20;92.70;;;;;;4201947;28;20031;-64
2023/06/25 06:59:30;;;;;;;5.80;4.55;;;28.10;92.80;;;;;;4202609;28;20032;-63
2023/06/25 07:01:30;;;;;;;6.25;4.55;;;28.00;92.40;;;;;;4209740;28;20044;-63
2023/06/25 07:03:31;;;;;;;6.97;4.75;;;27.90;93.00;;;;;;4208026;28;20040;-63
2023/06/25 07:05:31;;;;;;;6.10;4.25;;;27.90;93.20;;;;;;4205670;28;20032;-63
2023/06/25 07:07:32;;;;;;;6.15;3.83;;;27.90;92.80;;;;;;4206908;28;20092;-64
2023/06/25 07:09:33;;;;;;;5.80;4.13;;;28.00;93.40;;;;;;4206976;28;20036;-63
2023/06/25 07:11:34;;;;;;;5.20;4.25;;;28.00;92.60;;;;;;4200162;28;20044;-63
2023/06/25 07:13:35;;;;;;;7.07;4.43;;;28.00;92.80;;;;;;4201346;28;20031;-63
2023/06/25 07:15:35;;;;;;;5.32;3.80;;;27.90;91.90;;;;;;4196723;28;20021;-63
2023/06/25 07:17:36;;;;;;;11.50;4.63;;;27.90;92.70;;;;;;4204008;28;20394;-63
2023/06/25 07:19:37;;;;;;;5.28;4.10;;;27.90;92.60;;;;;;4200875;28;20119;-63
2023/06/25 07:21:38;;;;;;;5.93;3.67;;;27.90;92.30;;;;;;4207450;28;20039;-65
2023/06/25 07:23:39;;;;;;;6.18;4.18;;;28.00;92.40;;;;;;4200728;28;20056;-64
2023/06/25 07:25:40;;;;;;;6.40;4.20;;;28.00;92.10;;;;;;4208023;28;20465;-64
2023/06/25 07:27:40;;;;;;;6.47;4.72;;;28.00;92.80;;;;;;4205948;28;20040;-65
2023/06/25 07:29:41;;;;;;;5.82;4.00;;;28.10;92.50;;;;;;4206810;28;20029;-65
2023/06/25 07:31:41;;;;;;;5.25;4.38;;;28.10;92.10;;;;;;4205306;28;20081;-65
2023/06/25 07:33:42;;;;;;;6.60;4.40;;;28.10;92.00;;;;;;4200054;28;20029;-67
2023/06/25 07:35:42;;;;;;;8.88;4.78;;;28.20;91.70;;;;;;4199428;28;20544;-65
2023/06/25 07:37:43;;;;;;;7.40;4.32;;;28.20;92.50;;;;;;4203420;28;20072;-65
2023/06/25 07:39:44;;;;;;;5.05;4.07;;;28.20;92.60;;;;;;4203197;28;20395;-65
2023/06/25 07:41:44;;;;;;;6.75;3.92;;;28.20;92.40;;;;;;4200840;28;20129;-65
2023/06/25 07:43:45;;;;;;;5.70;3.92;;;28.30;92.20;;;;;;4202322;28;20033;-65
2023/06/25 07:45:45;;;;;;;6.07;4.43;;;28.30;92.40;;;;;;4204222;28;20107;-65
2023/06/25 07:47:46;;;;;;;4.70;3.95;;;28.30;92.80;;;;;;4201284;28;20042;-65
2023/06/25 07:49:46;;;;;;;5.38;3.97;;;28.40;91.50;;;;;;4201854;28;20379;-65
2023/06/25 07:51:50;;;;;;;6.65;3.90;;;28.40;92.60;;;;;;4204485;28;20064;-65
2023/06/25 07:53:51;;;;;;;6.07;3.83;;;28.40;90.90;;;;;;4202912;28;20071;-65
2023/06/25 07:55:51;;;;;;;4.03;3.28;;;28.40;90.70;;;;;;4199918;28;20483;-65
2023/06/25 07:57:52;;;;;;;5.20;3.88;;;28.50;91.80;;;;;;4202777;28;20028;-65
2023/06/25 07:59:53;;;;;;;4.78;3.50;;;28.50;91.10;;;;;;4208284;28;20035;-65
2023/06/25 08:01:54;;;;;;;5.95;3.75;;;28.60;91.20;;;;;;4209937;28;20028;-65
2023/06/25 08:03:55;;;;;;;5.55;3.92;;;28.70;91.00;;;;;;4200934;28;20039;-64
2023/06/25 08:05:56;;;;;;;6.38;3.70;;;28.70;90.50;;;;;;4198590;28;20035;-65
2023/06/25 08:07:56;;;;;;;5.80;3.92;;;28.80;90.70;;;;;;4191666;28;20024;-64
2023/06/25 08:09:57;;;;;;;4.25;3.20;;;28.80;90.20;;;;;;4212078;28;20035;-65
2023/06/25 08:11:58;;;;;;;5.50;3.63;;;28.80;90.20;;;;;;4203111;28;20029;-65
2023/06/25 08:13:58;;;;;;;3.95;3.53;;;28.90;90.40;;;;;;4204381;28;20032;-65
2023/06/25 08:15:59;;;;;;;5.05;3.38;;;28.90;91.00;;;;;;4203664;28;20044;-65
2023/06/25 08:17:59;;;;;;;5.97;3.38;;;29.00;90.10;;;;;;4202524;28;20029;-67
2023/06/25 08:20:00;;;;;;;5.10;3.45;;;29.10;90.30;;;;;;4203651;28;20473;-66
2023/06/25 08:22:01;;;;;;;4.07;3.42;;;29.10;89.80;;;;;;4199722;28;20032;-65
2023/06/25 08:24:01;;;;;;;4.70;3.60;;;29.20;90.30;;;;;;4206764;28;20383;-66
2023/06/25 08:26:02;;;;;;;4.40;3.30;;;29.20;88.60;;;;;;4207360;28;20028;-66
2023/06/25 08:28:03;;;;;;;3.83;3.15;;;29.30;87.70;;;;;;4207009;28;20151;-66
2023/06/25 08:30:04;;;;;;;3.85;3.22;;;29.30;86.90;;;;;;4177892;28;20040;-66
2023/06/25 08:32:05;;;;;;;5.47;3.75;;;29.40;86.90;;;;;;4201455;28;20090;-66
2023/06/25 08:34:06;;;;;;;4.47;3.22;;;29.40;84.30;;;;;;4189984;28;20383;-66
2023/06/25 08:36:07;;;;;;;4.07;3.20;;;29.40;85.30;;;;;;4203096;28;20563;-65
2023/06/25 08:38:08;;;;;;;4.18;3.22;;;29.50;86.00;;;;;;4201489;28;20037;-64
2023/06/25 08:40:12;;;;;;;3.85;3.10;;;29.60;85.50;;;;;;4204913;28;20048;-64
2023/06/25 08:42:13;;;;;;;4.43;3.38;;;29.70;86.40;;;;;;4202917;28;20024;-64
2023/06/25 08:44:13;;;;;;;4.57;3.35;;;29.70;84.70;;;;;;4203339;28;20042;-64
2023/06/25 08:46:14;;;;;;;5.80;3.17;;;29.80;83.80;;;;;;4203882;28;20028;-64
2023/06/25 08:48:17;;;;;;;4.78;3.30;;;29.80;79.80;;;;;;4204091;28;20111;-65
2023/06/25 08:50:18;;;;;;;;;;;29.90;81.90;;;;;;4181052;28;20029;-65
2023/06/25 08:52:19;;;;;;;3.20;2.75;;;29.90;83.00;;;;;;4201592;28;19962;-65
2023/06/25 08:54:19;;;;;;;4.28;3.25;;;29.90;81.20;;;;;;4198257;28;20028;-65
2023/06/25 08:56:20;;;;;;;4.38;3.13;;;30.00;82.30;;;;;;4208904;28;20483;-65
2023/06/25 08:58:21;;;;;;;4.57;3.70;;;30.00;82.30;;;;;;4209600;28;20024;-65
2023/06/25 09:00:22;;;;;;;4.55;3.08;;;30.00;81.50;;;;;;4207579;28;20035;-65
2023/06/25 09:02:22;;;;;;;3.60;3.08;;;30.10;80.50;;;;;;4207900;28;20059;-65
2023/06/25 09:04:24;;;;;;;6.28;3.30;;;30.10;82.80;;;;;;4208591;28;20128;-65
2023/06/25 09:06:26;;;;;;;4.55;3.33;;;30.20;81.50;;;;;;4205072;28;20085;-65
2023/06/25 09:08:28;;;;;;;3.60;3.10;;;30.20;81.30;;;;;;4193436;28;20171;-64
2023/06/25 09:10:31;;;;;;;4.30;3.30;;;30.40;82.00;;;;;;4208147;28;20335;-65
2023/06/25 09:12:32;;;;;;;6.40;3.20;;;30.40;81.90;;;;;;4207795;28;20024;-65
2023/06/25 09:14:32;;;;;;;5.88;3.70;;;30.40;79.20;;;;;;4196586;28;20461;-65
2023/06/25 09:16:33;;;;;;;4.90;3.45;;;30.50;81.10;;;;;;4208663;28;20055;-65
2023/06/25 09:18:33;;;;;;;4.22;3.00;;;30.50;82.10;;;;;;4192989;28;20043;-65
2023/06/25 09:20:34;;;;;;;4.15;3.15;;;30.50;78.70;;;;;;4194025;28;20036;-65
2023/06/25 09:22:48;;;;;;;4.15;3.20;;;30.50;78.70;;;;;;4193966;28;20036;-65
2023/06/25 09:24:49;;;;;;;4.95;3.17;;;30.60;80.10;;;;;;4199629;28;20063;-66
2023/06/25 09:26:52;;;;;;;4.20;3.05;;;30.50;80.10;;;;;;4210191;28;23588;-65
2023/06/25 09:28:57;;;;;;;5.38;3.67;;;30.60;77.40;;;;;;4209283;28;20507;-65
2023/06/25 09:30:59;;;;;;;3.83;3.00;;;30.60;76.90;;;;;;4198958;28;20399;-65
2023/06/25 09:33:00;;;;;;;3.50;2.95;;;30.60;75.80;;;;;;4205561;28;20479;-65
2023/06/25 09:35:03;;;;;;;3.65;2.90;;;30.60;75.90;;;;;;4208864;28;20043;-67
2023/06/25 09:37:04;;;;;;;4.65;3.70;;;30.60;77.70;;;;;;4208841;28;20040;-65
2023/06/25 09:39:05;;;;;;;4.43;3.35;;;30.70;79.60;;;;;;4204204;28;20055;-65
2023/06/25 09:41:06;;;;;;;3.90;3.25;;;30.70;81.00;;;;;;4189546;28;20404;-65
2023/06/25 09:43:08;;;;;;;3.63;2.90;;;30.80;79.90;;;;;;4203851;28;20036;-65
2023/06/25 09:45:12;;;;;;;5.97;3.90;;;30.80;78.00;;;;;;4198342;28;20600;-66
2023/06/25 09:47:15;;;;;;;6.03;3.45;;;30.80;76.40;;;;;;4191226;28;20414;-65
2023/06/25 09:49:18;;;;;;;4.53;3.05;;;30.90;79.10;;;;;;4190744;28;20452;-65
2023/06/25 09:51:21;;;;;;;3.83;3.10;;;30.90;79.40;;;;;;4205301;28;20024;-65
2023/06/25 09:53:25;;;;;;;3.92;3.22;;;31.00;82.30;;;;;;4188277;28;20059;-65
2023/06/25 09:55:28;;;;;;;4.53;2.92;;;31.00;77.90;;;;;;4194216;28;20044;-65
2023/06/25 09:57:30;;;;;;;3.97;3.15;;;31.00;76.40;;;;;;4190108;28;20032;-65
2023/06/25 09:59:31;;;;;;;4.60;3.58;;;31.00;75.70;;;;;;4186790;28;20156;-66
2023/06/25 10:01:31;;;;;;;4.13;3.33;;;31.10;76.60;;;;;;4190208;28;20039;-65
2023/06/25 10:03:34;;;;;;;4.00;3.17;;;31.00;76.30;;;;;;4185569;28;20080;-65
2023/06/25 10:05:37;;;;;;;4.80;3.42;;;31.10;79.90;;;;;;4187890;28;20701;-66
2023/06/25 10:07:39;;;;;;;4.82;3.53;;;31.10;74.90;;;;;;4196968;28;20045;-65
2023/06/25 10:09:50;;;;;;;4.43;2.87;;;31.10;75.60;;;;;;4191270;28;20471;-65
2023/06/25 10:12:00;;;;;;;5.95;3.20;;;31.10;78.30;;;;;;4182760;28;20266;-65
2023/06/25 10:14:01;;;;;;;2.92;2.63;;;31.20;78.40;;;;;;4185478;28;20070;-65
2023/06/25 10:16:03;;;;;;;8.55;3.30;;;31.20;73.80;;;;;;4186385;28;20056;-65
2023/06/25 10:18:05;;;;;;;4.68;3.47;;;31.20;74.00;;;;;;4208436;28;20024;-65
2023/06/25 10:20:06;;;;;;;3.40;2.75;;;31.20;74.40;;;;;;4207646;28;20028;-65
2023/06/25 10:22:12;;;;;;;4.68;3.00;;;31.30;74.60;;;;;;4205619;28;20380;-65
2023/06/25 10:24:12;;;;;;;3.72;3.10;;;31.30;74.40;;;;;;4204371;28;20406;-65
2023/06/25 10:26:13;;;;;;;3.60;3.15;;;31.30;72.60;;;;;;4195181;28;20038;-65
2023/06/25 10:28:14;;;;;;;4.00;3.28;;;31.30;71.60;;;;;;4198686;28;20052;-65
2023/06/25 10:30:14;;;;;;;4.22;3.20;;;31.40;72.50;;;;;;4197520;28;20123;-65